Time;durP1;ratioP1;P1;durP2;ratioP2;P2;SDS_P1;SDS_P2;PMS_P1;PMS_P2;Temp;Humidity;BMP_temperature;BMP_pressure;BME280_temperature;BME280_humidity;BME280_pressure;Samples;Min_cycle;Max_cycle;Signal;HPM_P1;HPM_P2
2022/05/20 00:01:04;;;;;;;5.47;4.50;;;;;;;;;;5044198;28;20716;-82
2022/05/20 00:03:32;;;;;;;4.38;4.07;;;;;;;;;;5044846;28;20945;-83
2022/05/20 00:05:59;;;;;;;7.10;5.90;;;;;;;;;;5042596;28;20256;-84
2022/05/20 00:08:27;;;;;;;6.65;4.82;;;;;;;;;;5047341;28;20454;-82
2022/05/20 00:10:54;;;;;;;5.40;4.82;;;;;;;;;;5049604;28;20195;-83
2022/05/20 00:13:22;;;;;;;5.03;4.53;;;;;;;;;;5048453;28;20196;-83
2022/05/20 00:15:50;;;;;;;4.20;3.80;;;;;;;;;;5044865;28;20200;-84
2022/05/20 00:18:17;;;;;;;5.85;4.05;;;;;;;;;;5045082;28;20210;-83
2022/05/20 00:20:45;;;;;;;4.85;4.35;;;;;;;;;;5037101;28;20215;-83
2022/05/20 00:23:12;;;;;;;3.83;3.53;;;;;;;;;;5046901;28;20298;-83
2022/05/20 00:25:48;;;;;;;5.97;3.90;;;;;;;;;;5046334;28;20320;-84
2022/05/20 00:28:18;;;;;;;4.47;4.07;;;;;;;;;;5044474;28;20199;-84
2022/05/20 00:30:45;;;;;;;4.30;3.55;;;;;;;;;;5037245;28;20601;-85
2022/05/20 00:33:14;;;;;;;5.88;4.38;;;;;;;;;;5046692;28;20666;-84
2022/05/20 00:35:42;;;;;;;6.82;5.22;;;;;;;;;;5042977;28;20674;-84
2022/05/20 00:38:09;;;;;;;4.85;4.10;;;;;;;;;;5051491;28;20199;-84
2022/05/20 00:40:36;;;;;;;5.20;3.67;;;;;;;;;;5051092;28;20933;-84
2022/05/20 00:43:08;;;;;;;4.68;4.18;;;;;;;;;;5050028;28;20218;-84
2022/05/20 00:45:36;;;;;;;6.53;5.88;;;;;;;;;;5044388;28;20202;-84
2022/05/20 00:48:03;;;;;;;5.45;4.90;;;;;;;;;;5040326;28;20195;-84
2022/05/20 00:50:31;;;;;;;5.68;4.97;;;;;;;;;;5046105;28;20203;-84
2022/05/20 00:53:00;;;;;;;5.13;4.47;;;;;;;;;;5040146;28;20191;-83
2022/05/20 00:55:28;;;;;;;5.03;4.63;;;;;;;;;;5041502;28;20199;-84
2022/05/20 00:57:57;;;;;;;4.95;4.45;;;;;;;;;;5047395;28;20207;-83
2022/05/20 01:00:25;;;;;;;5.57;4.93;;;;;;;;;;5037275;28;20207;-85
2022/05/20 01:02:54;;;;;;;5.78;5.15;;;;;;;;;;5046537;28;20219;-84
2022/05/20 01:05:23;;;;;;;5.95;5.45;;;;;;;;;;5045009;28;20203;-85
2022/05/20 01:07:52;;;;;;;7.70;6.43;;;;;;;;;;5046862;28;20199;-85
2022/05/20 01:10:19;;;;;;;5.55;5.05;;;;;;;;;;5043614;28;20215;-84
2022/05/20 01:12:47;;;;;;;6.32;5.72;;;;;;;;;;5042109;28;20225;-83
2022/05/20 01:15:14;;;;;;;6.10;4.80;;;;;;;;;;5046794;28;20198;-85
2022/05/20 01:17:41;;;;;;;5.72;5.22;;;;;;;;;;5039743;28;20211;-84
2022/05/20 01:20:10;;;;;;;6.43;5.80;;;;;;;;;;5037151;28;20570;-84
2022/05/20 01:22:47;;;;;;;6.00;4.93;;;;;;;;;;5038096;28;20221;-84
2022/05/20 01:25:14;;;;;;;5.30;4.78;;;;;;;;;;5042616;28;20187;-83
2022/05/20 01:27:42;;;;;;;5.88;5.30;;;;;;;;;;5048934;28;20195;-83
2022/05/20 01:30:11;;;;;;;5.63;4.70;;;;;;;;;;5043237;28;20218;-83
2022/05/20 01:32:38;;;;;;;6.55;5.60;;;;;;;;;;5039628;28;20203;-83
2022/05/20 01:35:07;;;;;;;5.28;4.78;;;;;;;;;;5037350;28;20213;-83
2022/05/20 01:37:34;;;;;;;6.20;5.60;;;;;;;;;;5041962;28;20203;-84
2022/05/20 01:40:03;;;;;;;6.25;5.63;;;;;;;;;;5050799;28;20675;-86
2022/05/20 01:42:32;;;;;;;4.15;3.72;;;;;;;;;;5047792;28;20686;-85
2022/05/20 01:45:02;;;;;;;5.38;4.25;;;;;;;;;;5041142;28;20195;-85
2022/05/20 01:47:32;;;;;;;5.55;3.92;;;;;;;;;;5043540;28;20641;-85
2022/05/20 01:50:03;;;;;;;5.10;4.60;;;;;;;;;;5037454;28;20701;-84
2022/05/20 01:52:33;;;;;;;5.55;4.43;;;;;;;;;;5049786;28;20745;-85
2022/05/20 01:55:04;;;;;;;4.88;3.75;;;;;;;;;;5035755;28;20650;-85
2022/05/20 01:57:36;;;;;;;8.07;6.55;;;;;;;;;;5046637;28;20609;-85
2022/05/20 02:00:05;;;;;;;4.75;4.18;;;;;;;;;;5040184;28;20765;-85
2022/05/20 02:02:37;;;;;;;5.57;5.03;;;;;;;;;;5048346;28;20222;-85
2022/05/20 02:05:06;;;;;;;5.15;4.07;;;;;;;;;;5043544;28;20697;-85
2022/05/20 02:07:35;;;;;;;4.75;4.35;;;;;;;;;;5033138;28;20221;-84
2022/05/20 02:10:05;;;;;;;6.88;4.38;;;;;;;;;;5043279;28;20203;-83
2022/05/20 02:12:37;;;;;;;5.60;5.07;;;;;;;;;;5049157;28;20202;-84
2022/05/20 02:15:08;;;;;;;3.60;3.30;;;;;;;;;;5044944;28;20198;-83
2022/05/20 02:17:36;;;;;;;6.47;4.95;;;;;;;;;;5050195;28;20194;-83
2022/05/20 02:20:05;;;;;;;7.05;4.45;;;;;;;;;;5041533;28;20665;-83
2022/05/20 02:22:34;;;;;;;7.30;5.55;;;;;;;;;;5051401;28;20237;-83
2022/05/20 02:25:03;;;;;;;6.05;4.20;;;;;;;;;;5048081;28;20195;-83
2022/05/20 02:27:33;;;;;;;5.32;4.50;;;;;;;;;;5045620;28;20242;-83
2022/05/20 02:30:04;;;;;;;5.03;4.53;;;;;;;;;;5047055;28;20233;-84
2022/05/20 02:32:34;;;;;;;5.28;4.78;;;;;;;;;;5045885;28;20282;-83
2022/05/20 02:35:02;;;;;;;4.97;4.53;;;;;;;;;;5045013;28;20198;-84
2022/05/20 02:37:30;;;;;;;5.25;4.70;;;;;;;;;;5046416;28;20242;-83
2022/05/20 02:39:57;;;;;;;4.72;3.40;;;;;;;;;;5045921;28;20570;-82
2022/05/20 02:42:26;;;;;;;4.30;3.90;;;;;;;;;;5048581;28;20298;-83
2022/05/20 02:44:54;;;;;;;7.15;4.18;;;;;;;;;;5043801;28;20621;-85
2022/05/20 02:47:23;;;;;;;4.55;3.88;;;;;;;;;;5046274;28;20244;-84
2022/05/20 02:49:50;;;;;;;4.68;4.28;;;;;;;;;;5037441;28;20253;-84
2022/05/20 02:52:17;;;;;;;5.05;4.57;;;;;;;;;;5037651;28;20199;-84
2022/05/20 02:54:44;;;;;;;5.20;4.70;;;;;;;;;;5043505;28;20210;-80
2022/05/20 02:57:11;;;;;;;5.75;4.88;;;;;;;;;;5044903;28;20585;-79
2022/05/20 03:05:09;;;;;;;5.60;5.20;;;;;;;;;;5034580;28;20210;-79
2022/05/20 03:07:36;;;;;;;5.57;5.00;;;;;;;;;;5048110;28;20203;-78
2022/05/20 03:10:04;;;;;;;3.80;3.40;;;;;;;;;;5043600;28;20191;-79
2022/05/20 03:12:32;;;;;;;4.10;3.67;;;;;;;;;;5052456;28;20199;-79
2022/05/20 03:14:59;;;;;;;4.47;4.07;;;;;;;;;;5048625;28;20667;-79
2022/05/20 03:17:28;;;;;;;5.32;4.82;;;;;;;;;;5051297;28;20650;-78
2022/05/20 03:19:55;;;;;;;5.55;4.85;;;;;;;;;;5045986;28;20199;-78
2022/05/20 03:22:22;;;;;;;5.05;4.55;;;;;;;;;;5045417;28;20222;-78
2022/05/20 03:24:49;;;;;;;4.60;3.97;;;;;;;;;;5050875;28;20712;-80
2022/05/20 03:27:17;;;;;;;4.80;4.13;;;;;;;;;;5051764;28;20199;-78
2022/05/20 03:29:44;;;;;;;8.20;4.47;;;;;;;;;;5051113;28;20206;-78
2022/05/20 03:32:12;;;;;;;5.75;4.80;;;;;;;;;;5051517;28;20235;-83
2022/05/20 03:34:40;;;;;;;4.18;3.78;;;;;;;;;;5041379;28;20192;-77
2022/05/20 03:37:07;;;;;;;4.20;3.80;;;;;;;;;;5048868;28;20211;-78
2022/05/20 03:39:35;;;;;;;3.92;3.63;;;;;;;;;;5041559;28;20199;-77
2022/05/20 03:42:03;;;;;;;4.47;4.07;;;;;;;;;;5049373;28;20223;-77
2022/05/20 03:44:30;;;;;;;5.07;4.45;;;;;;;;;;5051365;28;20272;-78
2022/05/20 03:46:58;;;;;;;5.45;4.95;;;;;;;;;;5042725;28;20214;-79
2022/05/20 03:49:26;;;;;;;5.90;4.60;;;;;;;;;;5045015;28;20227;-80
2022/05/20 03:51:56;;;;;;;8.05;4.45;;;;;;;;;;5040244;28;20210;-79
2022/05/20 03:54:26;;;;;;;5.75;4.00;;;;;;;;;;5045854;28;20210;-78
2022/05/20 03:56:53;;;;;;;6.40;5.20;;;;;;;;;;5050499;28;20206;-78
2022/05/20 03:59:21;;;;;;;5.00;4.53;;;;;;;;;;5039246;28;20289;-78
2022/05/20 04:01:56;;;;;;;7.65;5.07;;;;;;;;;;5046171;28;20275;-80
2022/05/20 04:04:24;;;;;;;5.30;4.80;;;;;;;;;;5044521;28;20264;-79
2022/05/20 04:06:51;;;;;;;4.57;4.13;;;;;;;;;;5049962;28;20210;-78
2022/05/20 04:09:20;;;;;;;4.60;4.10;;;;;;;;;;5045481;28;20697;-78
2022/05/20 04:11:48;;;;;;;6.10;4.70;;;;;;;;;;5049783;28;20203;-78
2022/05/20 04:14:15;;;;;;;4.97;4.47;;;;;;;;;;5046256;28;20206;-78
2022/05/20 04:16:42;;;;;;;5.65;4.90;;;;;;;;;;5047590;28;20574;-79
2022/05/20 04:19:09;;;;;;;6.75;5.90;;;;;;;;;;5039359;28;20646;-78
2022/05/20 04:21:36;;;;;;;6.53;5.93;;;;;;;;;;5043886;28;20187;-80
2022/05/20 04:24:03;;;;;;;5.70;5.20;;;;;;;;;;5041016;28;20681;-78
2022/05/20 04:26:32;;;;;;;4.82;4.40;;;;;;;;;;5042955;28;20206;-80
2022/05/20 04:28:59;;;;;;;8.18;4.85;;;;;;;;;;5046908;28;20650;-78
2022/05/20 04:31:26;;;;;;;4.85;4.45;;;;;;;;;;5040810;28;20226;-80
2022/05/20 04:33:53;;;;;;;4.35;3.63;;;;;;;;;;5042867;28;20736;-78
2022/05/20 04:36:20;;;;;;;6.05;5.45;;;;;;;;;;5046157;28;20670;-78
2022/05/20 04:38:47;;;;;;;5.95;4.70;;;;;;;;;;5051914;28;20609;-79
2022/05/20 04:46:57;;;;;;;6.00;4.72;;;;;;;;;;5043698;28;20334;-79
2022/05/20 04:49:25;;;;;;;4.72;4.32;;;;;;;;;;5046618;28;20555;-79
2022/05/20 04:51:52;;;;;;;7.97;6.10;;;;;;;;;;5044279;28;20195;-79
2022/05/20 04:57:04;;;;;;;6.78;5.28;;;;;;;;;;5037078;28;20209;-80
2022/05/20 04:59:35;;;;;;;7.25;5.47;;;;;;;;;;5041449;28;20206;-78
2022/05/20 05:02:03;;;;;;;9.27;8.25;;;;;;;;;;5044718;28;20533;-80
2022/05/20 05:04:30;;;;;;;8.93;6.93;;;;;;;;;;5045391;28;20266;-78
2022/05/20 05:06:57;;;;;;;7.07;6.45;;;;;;;;;;5040877;28;20209;-80
2022/05/20 05:09:24;;;;;;;7.53;6.70;;;;;;;;;;5043469;28;20210;-77
2022/05/20 05:11:52;;;;;;;16.77;9.30;;;;;;;;;;5042348;28;20670;-78
2022/05/20 05:14:19;;;;;;;12.27;10.93;;;;;;;;;;5046323;28;20656;-77
2022/05/20 05:16:48;;;;;;;12.02;9.50;;;;;;;;;;5042034;28;20210;-79
2022/05/20 05:19:15;;;;;;;12.57;8.20;;;;;;;;;;5043314;28;20206;-80
2022/05/20 05:21:42;;;;;;;9.48;8.57;;;;;;;;;;5046213;28;20199;-78
2022/05/20 05:24:09;;;;;;;10.88;9.63;;;;;;;;;;5041592;28;20809;-78
2022/05/20 05:26:37;;;;;;;10.10;8.75;;;;;;;;;;5045350;28;20191;-77
2022/05/20 05:29:04;;;;;;;8.82;7.93;;;;;;;;;;5041518;28;20198;-77
2022/05/20 05:31:31;;;;;;;9.18;8.18;;;;;;;;;;5043077;28;20203;-77
2022/05/20 05:34:00;;;;;;;12.80;7.35;;;;;;;;;;5042187;28;20230;-77
2022/05/20 05:36:28;;;;;;;6.88;6.00;;;;;;;;;;5043631;28;20710;-79
2022/05/20 05:38:55;;;;;;;7.00;6.28;;;;;;;;;;5048930;28;20195;-78
2022/05/20 05:41:25;;;;;;;8.95;7.20;;;;;;;;;;5046624;28;20227;-79
2022/05/20 05:43:53;;;;;;;6.80;6.15;;;;;;;;;;5038611;28;20218;-78
2022/05/20 05:46:20;;;;;;;7.70;6.85;;;;;;;;;;5045136;28;20230;-78
2022/05/20 05:48:47;;;;;;;6.10;5.35;;;;;;;;;;5043045;28;20696;-80
2022/05/20 05:51:15;;;;;;;6.30;5.00;;;;;;;;;;5044040;28;20199;-79
2022/05/20 05:53:42;;;;;;;5.82;5.32;;;;;;;;;;5049474;28;20195;-78
2022/05/20 05:56:10;;;;;;;10.57;6.13;;;;;;;;;;5045418;28;20651;-78
2022/05/20 05:58:38;;;;;;;8.05;5.40;;;;;;;;;;5041800;28;20203;-84
2022/05/20 06:01:05;;;;;;;7.28;5.95;;;;;;;;;;5039676;28;20203;-83
2022/05/20 06:03:32;;;;;;;5.45;5.03;;;;;;;;;;5042256;28;20586;-80
2022/05/20 06:05:59;;;;;;;7.47;5.72;;;;;;;;;;5041553;28;20491;-79
2022/05/20 06:08:28;;;;;;;6.82;6.13;;;;;;;;;;5038140;28;20570;-81
2022/05/20 06:10:55;;;;;;;8.50;7.30;;;;;;;;;;5047338;28;20658;-81
2022/05/20 06:13:24;;;;;;;6.05;5.55;;;;;;;;;;5042642;28;20668;-78
2022/05/20 06:15:51;;;;;;;5.40;4.90;;;;;;;;;;5041037;28;20203;-79
2022/05/20 06:18:18;;;;;;;6.33;4.70;;;;;;;;;;5037784;28;20194;-79
2022/05/20 06:20:45;;;;;;;6.32;4.53;;;;;;;;;;5044727;28;20468;-78
2022/05/20 06:23:12;;;;;;;4.50;4.03;;;;;;;;;;5041693;28;20203;-79
2022/05/20 06:25:41;;;;;;;7.40;4.63;;;;;;;;;;5037098;28;20227;-79
2022/05/20 06:28:09;;;;;;;5.15;4.68;;;;;;;;;;5047143;28;20231;-81
2022/05/20 06:30:38;;;;;;;4.80;4.35;;;;;;;;;;5040363;28;20199;-80
2022/05/20 06:33:05;;;;;;;5.70;4.57;;;;;;;;;;5033938;28;20195;-80
2022/05/20 06:41:03;;;;;;;4.07;3.20;;;;;;;;;;5044793;28;20487;-81
2022/05/20 06:43:30;;;;;;;4.20;3.80;;;;;;;;;;5043803;28;20468;-82
2022/05/20 06:46:00;;;;;;;5.20;3.80;;;;;;;;;;5046616;28;20467;-80
2022/05/20 06:48:37;;;;;;;3.93;3.33;;;;;;;;;;5039003;28;20471;-80
2022/05/20 06:51:04;;;;;;;4.20;3.80;;;;;;;;;;5040590;28;20453;-82
2022/05/20 06:53:31;;;;;;;4.47;4.07;;;;;;;;;;5050349;28;20453;-80
2022/05/20 06:55:58;;;;;;;4.60;4.20;;;;;;;;;;5045602;28;20457;-79
2022/05/20 06:58:27;;;;;;;4.30;3.83;;;;;;;;;;5040927;28;20502;-80
2022/05/20 07:00:54;;;;;;;4.47;3.40;;;;;;;;;;5041743;28;20459;-81
2022/05/20 07:03:21;;;;;;;4.23;3.83;;;;;;;;;;5044394;28;20994;-80
2022/05/20 07:05:49;;;;;;;5.90;4.57;;;;;;;;;;5042304;28;20586;-79
2022/05/20 07:08:17;;;;;;;5.00;4.40;;;;;;;;;;5040507;28;21058;-82
2022/05/20 07:10:44;;;;;;;3.30;3.00;;;;;;;;;;5044256;28;20471;-81
2022/05/20 07:13:11;;;;;;;6.20;4.60;;;;;;;;;;5045405;28;20845;-80
2022/05/20 07:15:39;;;;;;;4.53;4.13;;;;;;;;;;5039132;28;20961;-82
2022/05/20 07:18:07;;;;;;;5.43;4.80;;;;;;;;;;5039073;28;20845;-79
2022/05/20 07:20:34;;;;;;;8.23;6.33;;;;;;;;;;5033063;28;20460;-82
2022/05/20 07:23:01;;;;;;;4.87;4.20;;;;;;;;;;5036045;28;20461;-81
2022/05/20 07:25:28;;;;;;;7.97;4.50;;;;;;;;;;5040377;28;20499;-79
2022/05/20 07:27:58;;;;;;;5.20;3.90;;;;;;;;;;5041534;28;20472;-80
2022/05/20 07:30:25;;;;;;;3.77;3.47;;;;;;;;;;5043639;28;20451;-80
2022/05/20 07:32:54;;;;;;;4.27;3.20;;;;;;;;;;5043222;28;20566;-81
2022/05/20 07:35:21;;;;;;;5.07;4.50;;;;;;;;;;5038762;28;20547;-80
2022/05/20 07:37:49;;;;;;;3.50;3.20;;;;;;;;;;5032943;28;20473;-81
2022/05/20 07:40:16;;;;;;;5.03;4.07;;;;;;;;;;5050388;28;20457;-79
2022/05/20 07:42:43;;;;;;;3.07;2.77;;;;;;;;;;5048020;28;20489;-79
2022/05/20 07:45:11;;;;;;;4.20;3.80;;;;;;;;;;5049122;28;20492;-78
2022/05/20 07:47:38;;;;;;;4.77;3.63;;;;;;;;;;5045522;28;20468;-79
2022/05/20 07:50:07;;;;;;;4.97;3.50;;;;;;;;;;5049165;28;20461;-79
2022/05/20 07:55:20;;;;;;;3.23;2.93;;;;;;;;;;5043055;28;20437;-78
2022/05/20 07:57:48;;;;;;;3.37;2.57;;;;;;;;;;5040192;28;20465;-78
2022/05/20 08:00:16;;;;;;;3.10;2.60;;;;;;;;;;5049214;28;20449;-78
2022/05/20 08:02:44;;;;;;;2.43;2.13;;;;;;;;;;5042154;28;20457;-78
2022/05/20 08:05:13;;;;;;;5.13;2.40;;;;;;;;;;5048774;28;20539;-77
2022/05/20 08:07:42;;;;;;;4.03;3.33;;;;;;;;;;5044686;28;20461;-80
2022/05/20 08:10:10;;;;;;;3.80;2.87;;;;;;;;;;5047270;28;20464;-77
2022/05/20 08:12:38;;;;;;;2.13;1.90;;;;;;;;;;5044311;28;21240;-77
2022/05/20 08:15:05;;;;;;;2.30;2.00;;;;;;;;;;5044560;28;20457;-79
2022/05/20 08:17:35;;;;;;;2.70;2.20;;;;;;;;;;5040549;28;20920;-81
2022/05/20 08:20:04;;;;;;;3.10;2.33;;;;;;;;;;5037855;28;20549;-80
2022/05/20 08:22:32;;;;;;;3.00;2.80;;;;;;;;;;5037734;28;20458;-77
2022/05/20 08:25:00;;;;;;;4.23;2.90;;;;;;;;;;5035671;28;20477;-78
2022/05/20 08:27:29;;;;;;;3.53;3.00;;;;;;;;;;5041803;28;20468;-79
2022/05/20 08:29:57;;;;;;;4.13;3.73;;;;;;;;;;5041285;28;21051;-77
2022/05/20 08:32:24;;;;;;;6.13;3.60;;;;;;;;;;5041026;28;20470;-77
2022/05/20 08:34:51;;;;;;;3.60;3.30;;;;;;;;;;5038288;28;21092;-80
2022/05/20 08:37:19;;;;;;;2.60;2.40;;;;;;;;;;5039169;28;20523;-79
2022/05/20 08:39:47;;;;;;;4.43;4.00;;;;;;;;;;5046995;28;20461;-78
2022/05/20 08:42:17;;;;;;;5.63;2.83;;;;;;;;;;5052626;28;20838;-76
2022/05/20 08:44:47;;;;;;;3.23;2.73;;;;;;;;;;5054783;28;20978;-78
2022/05/20 08:47:17;;;;;;;3.43;2.57;;;;;;;;;;5047416;28;20990;-77
2022/05/20 08:49:44;;;;;;;2.83;2.40;;;;;;;;;;5035970;28;20975;-77
2022/05/20 08:52:11;;;;;;;3.47;2.47;;;;;;;;;;5039842;28;20481;-78
2022/05/20 08:54:38;;;;;;;2.50;2.20;;;;;;;;;;5045443;28;20948;-77
2022/05/20 08:57:16;;;;;;;2.20;1.80;;;;;;;;;;5042859;28;20995;-79
2022/05/20 08:59:44;;;;;;;3.33;2.17;;;;;;;;;;5035369;28;20454;-78
2022/05/20 09:02:11;;;;;;;2.00;1.80;;;;;;;;;;5040660;28;20883;-79
2022/05/20 09:04:38;;;;;;;2.50;1.80;;;;;;;;;;5047130;28;20860;-77
2022/05/20 09:07:06;;;;;;;2.37;2.10;;;;;;;;;;5047445;28;20513;-79
2022/05/20 09:09:48;;;;;;;3.00;2.70;;;;;;;;;;5040935;28;20466;-79
2022/05/20 09:12:27;;;;;;;5.97;3.33;;;;;;;;;;5041091;28;20469;-79
2022/05/20 09:17:47;;;;;;;3.17;2.60;;;;;;;;;;5042819;28;20447;-79
2022/05/20 09:20:17;;;;;;;4.10;2.90;;;;;;;;;;5040079;28;20486;-77
2022/05/20 09:22:53;;;;;;;3.50;2.13;;;;;;;;;;5045391;28;20469;-77
2022/05/20 09:25:21;;;;;;;2.53;2.33;;;;;;;;;;5046287;28;20485;-76
2022/05/20 09:27:51;;;;;;;2.90;2.50;;;;;;;;;;5037874;28;20843;-77
2022/05/20 09:30:23;;;;;;;3.10;2.43;;;;;;;;;;5043433;28;20468;-77
2022/05/20 09:32:56;;;;;;;3.30;2.40;;;;;;;;;;5041239;28;20485;-78
2022/05/20 09:35:24;;;;;;;2.70;2.50;;;;;;;;;;5041708;28;20457;-77
2022/05/20 09:37:53;;;;;;;2.37;2.13;;;;;;;;;;5039294;28;20573;-78
2022/05/20 09:40:22;;;;;;;3.60;3.30;;;;;;;;;;5046984;28;20472;-78
2022/05/20 09:43:04;;;;;;;4.23;3.60;;;;;;;;;;5034734;28;20504;-80
2022/05/20 09:45:37;;;;;;;3.53;3.13;;;;;;;;;;5039005;28;20482;-80
2022/05/20 09:48:04;;;;;;;4.90;3.60;;;;;;;;;;5046660;28;20465;-80
2022/05/20 09:50:34;;;;;;;4.93;3.10;;;;;;;;;;5036190;28;20560;-78
2022/05/20 09:53:02;;;;;;;2.80;2.50;;;;;;;;;;5040670;28;20499;-77
2022/05/20 09:55:31;;;;;;;3.10;2.70;;;;;;;;;;5038248;28;20982;-79
2022/05/20 09:58:09;;;;;;;3.27;2.97;;;;;;;;;;5043617;28;20473;-77
2022/05/20 10:00:38;;;;;;;2.97;2.30;;;;;;;;;;5039696;28;20461;-77
2022/05/20 10:03:08;;;;;;;2.90;2.47;;;;;;;;;;5044292;28;20944;-77
2022/05/20 10:05:39;;;;;;;6.60;3.63;;;;;;;;;;5044940;28;20538;-77
2022/05/20 10:08:10;;;;;;;3.83;3.43;;;;;;;;;;5033049;28;20462;-78
2022/05/20 10:10:42;;;;;;;3.40;3.10;;;;;;;;;;5040764;28;20461;-78
2022/05/20 10:13:14;;;;;;;3.07;2.50;;;;;;;;;;5039180;28;20469;-78
2022/05/20 10:15:45;;;;;;;5.40;4.60;;;;;;;;;;5034760;28;20469;-77
2022/05/20 10:18:18;;;;;;;5.60;3.27;;;;;;;;;;5042182;28;20465;-78
2022/05/20 10:20:47;;;;;;;3.80;3.50;;;;;;;;;;5037214;28;20465;-77
2022/05/20 10:23:17;;;;;;;3.40;3.10;;;;;;;;;;5049045;28;20470;-79
2022/05/20 10:25:50;;;;;;;4.17;3.83;;;;;;;;;;5040590;28;20848;-77
2022/05/20 10:34:06;;;;;;;4.80;3.23;;;;;;;;;;5039269;28;20461;-77
2022/05/20 10:36:37;;;;;;;3.97;3.00;;;;;;;;;;5041990;28;20458;-79
2022/05/20 10:39:10;;;;;;;5.60;3.57;;;;;;;;;;5047838;28;20457;-77
2022/05/20 10:41:48;;;;;;;5.60;4.57;;;;;;;;;;5046113;28;20478;-77
2022/05/20 10:50:02;;;;;;;5.47;4.67;;;;;;;;;;5040826;28;20655;-77
2022/05/20 10:52:33;;;;;;;4.43;3.70;;;;;;;;;;5043558;28;20543;-76
2022/05/20 10:55:09;;;;;;;5.00;4.50;;;;;;;;;;5044001;28;20465;-78
2022/05/20 10:57:46;;;;;;;6.90;5.80;;;;;;;;;;5046792;28;20518;-76
2022/05/20 11:00:16;;;;;;;11.30;5.43;;;;;;;;;;5034591;28;20473;-81
2022/05/20 11:02:58;;;;;;;8.93;6.47;;;;;;;;;;5038160;28;20476;-79
2022/05/20 11:05:38;;;;;;;6.17;5.57;;;;;;;;;;5032960;28;21005;-78
2022/05/20 11:08:10;;;;;;;8.33;5.20;;;;;;;;;;5038611;28;20491;-76
2022/05/20 11:10:44;;;;;;;5.67;5.17;;;;;;;;;;5035812;28;20469;-78
2022/05/20 11:13:17;;;;;;;7.60;5.10;;;;;;;;;;5038237;28;20464;-79
2022/05/20 11:15:57;;;;;;;7.77;5.73;;;;;;;;;;5045657;28;20488;-79
2022/05/20 11:18:33;;;;;;;5.00;4.50;;;;;;;;;;5040785;28;20468;-77
2022/05/20 11:21:06;;;;;;;7.30;6.50;;;;;;;;;;5044025;28;20451;-77
2022/05/20 11:23:40;;;;;;;8.77;5.70;;;;;;;;;;5038832;28;21287;-77
2022/05/20 11:26:15;;;;;;;7.47;6.43;;;;;;;;;;5048180;28;21027;-78
2022/05/20 11:29:07;;;;;;;6.40;5.43;;;;;;;;;;5043199;28;20465;-77
2022/05/20 11:31:43;;;;;;;6.33;5.73;;;;;;;;;;5034236;28;20465;-79
2022/05/20 11:34:18;;;;;;;6.37;5.77;;;;;;;;;;5036138;28;20870;-77
2022/05/20 11:36:56;;;;;;;8.17;5.90;;;;;;;;;;5043078;28;20440;-76
2022/05/20 11:39:41;;;;;;;8.93;6.43;;;;;;;;;;5048425;28;20516;-78
2022/05/20 11:42:15;;;;;;;8.53;6.60;;;;;;;;;;5047499;28;20840;-77
2022/05/20 11:44:48;;;;;;;6.37;5.77;;;;;;;;;;5039501;28;20449;-78
2022/05/20 11:47:28;;;;;;;11.23;8.63;;;;;;;;;;5040401;28;20484;-78
2022/05/20 11:50:07;;;;;;;8.03;7.23;;;;;;;;;;5047639;28;20473;-77
2022/05/20 11:52:40;;;;;;;6.83;6.13;;;;;;;;;;5047878;28;20442;-78
2022/05/20 11:55:10;;;;;;;7.13;6.43;;;;;;;;;;5041190;28;20456;-77
2022/05/20 11:57:39;;;;;;;9.10;6.97;;;;;;;;;;5039653;28;20466;-77
2022/05/20 12:00:07;;;;;;;10.80;7.33;;;;;;;;;;5032973;28;21298;-78
2022/05/20 12:02:43;;;;;;;10.87;9.33;;;;;;;;;;5043448;28;20476;-77
2022/05/20 12:05:13;;;;;;;10.00;8.47;;;;;;;;;;5047782;28;20452;-75
2022/05/20 12:07:41;;;;;;;9.23;6.93;;;;;;;;;;5044932;28;20469;-77
2022/05/20 12:10:39;;;;;;;7.33;6.63;;;;;;;;;;5050298;28;20456;-77
2022/05/20 12:13:10;;;;;;;11.73;7.57;;;;;;;;;;5044821;28;20459;-78
2022/05/20 12:15:40;;;;;;;7.60;6.90;;;;;;;;;;5039273;28;20456;-77
2022/05/20 12:24:10;;;;;;;8.10;7.30;;;;;;;;;;5051414;28;20470;-77
2022/05/20 12:24:15;;;;;;;8.53;7.83;;;;;;;;;;5037169;28;20456;-78
2022/05/20 12:26:46;;;;;;;9.50;8.53;;;;;;;;;;5040947;28;20483;-77
2022/05/20 12:29:37;;;;;;;8.37;7.57;;;;;;;;;;5036064;28;20466;-76
2022/05/20 12:32:25;;;;;;;9.30;8.40;;;;;;;;;;5041672;28;21239;-76
2022/05/20 12:34:55;;;;;;;10.77;9.63;;;;;;;;;;5038206;28;20845;-78
2022/05/20 12:37:37;;;;;;;10.93;9.87;;;;;;;;;;5047940;28;20453;-80
2022/05/20 12:40:06;;;;;;;10.10;9.03;;;;;;;;;;5034313;28;20971;-79
2022/05/20 12:42:41;;;;;;;9.73;8.63;;;;;;;;;;5047489;28;20480;-79
2022/05/20 12:45:09;;;;;;;8.27;7.47;;;;;;;;;;5047514;28;20436;-80
2022/05/20 12:47:37;;;;;;;11.17;9.97;;;;;;;;;;5048234;28;20488;-81
2022/05/20 12:50:08;;;;;;;10.40;9.37;;;;;;;;;;5040845;28;20983;-80
2022/05/20 12:52:36;;;;;;;15.00;12.60;;;;;;;;;;5034431;28;20785;-78
2022/05/20 12:55:15;;;;;;;12.60;10.20;;;;;;;;;;5036818;28;20465;-77
2022/05/20 12:57:49;;;;;;;10.20;9.20;;;;;;;;;;5042469;28;20982;-78
2022/05/20 13:00:17;;;;;;;10.90;9.80;;;;;;;;;;5044506;28;20448;-78
2022/05/20 13:02:46;;;;;;;12.73;11.43;;;;;;;;;;5050608;28;20921;-78
2022/05/20 13:05:17;;;;;;;10.20;9.10;;;;;;;;;;5052084;28;20944;-79
2022/05/20 13:07:45;;;;;;;10.30;9.30;;;;;;;;;;5046989;28;20488;-78
2022/05/20 13:10:25;;;;;;;16.50;10.27;;;;;;;;;;5048216;28;20484;-79
2022/05/20 13:12:53;;;;;;;11.90;10.70;;;;;;;;;;5040884;28;20457;-78
2022/05/20 13:15:21;;;;;;;10.60;9.30;;;;;;;;;;5042717;28;20457;-77
2022/05/20 13:17:52;;;;;;;8.57;7.77;;;;;;;;;;5047598;28;20434;-77
2022/05/20 13:20:19;;;;;;;9.80;8.77;;;;;;;;;;5049950;28;21032;-80
2022/05/20 13:22:49;;;;;;;9.60;8.60;;;;;;;;;;5046453;28;20462;-79
2022/05/20 13:25:18;;;;;;;10.17;8.93;;;;;;;;;;5041575;28;20970;-78
2022/05/20 13:27:47;;;;;;;10.40;9.07;;;;;;;;;;5040394;28;20481;-77
2022/05/20 13:30:16;;;;;;;10.30;9.30;;;;;;;;;;5045772;28;20456;-79
2022/05/20 13:32:43;;;;;;;9.43;8.43;;;;;;;;;;5049350;28;20464;-78
2022/05/20 13:35:10;;;;;;;9.97;8.97;;;;;;;;;;5033534;28;20465;-81
2022/05/20 13:37:38;;;;;;;9.00;8.20;;;;;;;;;;5039935;28;20896;-81
2022/05/20 13:40:12;;;;;;;11.50;7.97;;;;;;;;;;5041065;28;20449;-78
2022/05/20 13:42:40;;;;;;;9.90;8.90;;;;;;;;;;5031787;28;20478;-76
2022/05/20 13:45:12;;;;;;;9.63;7.90;;;;;;;;;;5041225;28;20817;-76
2022/05/20 13:50:26;;;;;;;9.77;8.60;;;;;;;;;;5034853;28;20453;-77
2022/05/20 13:52:55;;;;;;;11.67;10.47;;;;;;;;;;5033931;28;20703;-78
2022/05/20 13:55:23;;;;;;;10.80;9.57;;;;;;;;;;5040160;28;20512;-77
2022/05/20 13:57:51;;;;;;;10.83;9.70;;;;;;;;;;5036839;28;20460;-78
2022/05/20 14:00:28;;;;;;;9.57;8.37;;;;;;;;;;5042989;28;20448;-76
2022/05/20 14:02:57;;;;;;;15.13;9.53;;;;;;;;;;5037118;28;20861;-76
2022/05/20 14:05:27;;;;;;;10.23;9.23;;;;;;;;;;5037101;28;20837;-78
2022/05/20 14:07:55;;;;;;;12.20;9.90;;;;;;;;;;5033769;28;20476;-77
2022/05/20 14:10:30;;;;;;;9.80;8.43;;;;;;;;;;5030398;28;20462;-79
2022/05/20 14:12:59;;;;;;;12.33;10.10;;;;;;;;;;5035579;28;20492;-78
2022/05/20 14:15:32;;;;;;;10.30;9.20;;;;;;;;;;5030307;28;20467;-84
2022/05/20 14:18:02;;;;;;;10.93;9.77;;;;;;;;;;5047361;28;20445;-79
2022/05/20 14:20:30;;;;;;;15.60;10.50;;;;;;;;;;5043120;28;20974;-78
2022/05/20 14:22:57;;;;;;;12.03;10.80;;;;;;;;;;5042833;28;20459;-80
2022/05/20 14:25:27;;;;;;;13.40;12.00;;;;;;;;;;5041505;28;20452;-80
2022/05/20 14:28:09;;;;;;;11.23;10.10;;;;;;;;;;5035313;28;20913;-81
2022/05/20 14:30:42;;;;;;;12.70;9.30;;;;;;;;;;5035472;28;20469;-78
2022/05/20 14:33:11;;;;;;;10.20;8.90;;;;;;;;;;5034899;28;20934;-79
2022/05/20 14:35:40;;;;;;;8.33;7.50;;;;;;;;;;5041792;28;20893;-80
2022/05/20 14:38:09;;;;;;;9.20;7.53;;;;;;;;;;5033474;28;20461;-78
2022/05/20 14:40:40;;;;;;;10.60;7.80;;;;;;;;;;5036665;28;20990;-78
2022/05/20 14:43:08;;;;;;;7.83;7.13;;;;;;;;;;5034021;28;20899;-79
2022/05/20 14:45:37;;;;;;;11.03;7.77;;;;;;;;;;5031943;28;20961;-78
2022/05/20 14:48:08;;;;;;;7.60;7.00;;;;;;;;;;5027926;28;20887;-77
2022/05/20 14:50:35;;;;;;;7.00;6.33;;;;;;;;;;5032380;28;20469;-78
2022/05/20 14:53:04;;;;;;;7.90;6.80;;;;;;;;;;5032767;28;20472;-79
2022/05/20 14:55:44;;;;;;;7.10;6.47;;;;;;;;;;5030775;28;20468;-80
2022/05/20 14:58:13;;;;;;;8.83;6.07;;;;;;;;;;5029746;28;20475;-79
2022/05/20 15:00:52;;;;;;;6.57;5.97;;;;;;;;;;5035133;28;20481;-79
2022/05/20 15:03:22;;;;;;;7.53;6.83;;;;;;;;;;5040905;28;20460;-79
2022/05/20 15:05:50;;;;;;;7.37;6.67;;;;;;;;;;5043987;28;20946;-79
2022/05/20 15:08:18;;;;;;;6.63;6.13;;;;;;;;;;5043449;28;21064;-79
2022/05/20 15:10:53;;;;;;;7.17;6.47;;;;;;;;;;5037919;28;20464;-78
2022/05/20 15:13:21;;;;;;;6.47;5.87;;;;;;;;;;5037193;28;20841;-76
2022/05/20 15:15:48;;;;;;;6.13;5.53;;;;;;;;;;5042581;28;20488;-78
2022/05/20 15:18:15;;;;;;;6.27;5.67;;;;;;;;;;5038074;28;20465;-78
2022/05/20 15:20:44;;;;;;;6.60;5.93;;;;;;;;;;5039574;28;20468;-80
2022/05/20 15:23:14;;;;;;;6.13;5.60;;;;;;;;;;5040250;28;20472;-79
2022/05/20 15:25:42;;;;;;;7.37;6.67;;;;;;;;;;5034358;28;20891;-79
2022/05/20 15:28:47;;;;;;;7.00;6.30;;;;;;;;;;5033878;28;20481;-78
2022/05/20 15:34:51;;;;;;;7.33;6.73;;;;;;;;;;5035662;28;20458;-77
2022/05/20 15:36:30;;;;;;;7.43;6.73;;;;;;;;;;5032537;28;20477;-77
2022/05/20 15:38:58;;;;;;;6.07;5.47;;;;;;;;;;5039030;28;20468;-79
2022/05/20 15:41:26;;;;;;;7.63;6.93;;;;;;;;;;5039625;28;20570;-81